Time;durP1;ratioP1;P1;durP2;ratioP2;P2;SDS_P1;SDS_P2;PMS_P1;PMS_P2;Temp;Humidity;BMP_temperature;BMP_pressure;BME280_temperature;BME280_humidity;BME280_pressure;Samples;Min_cycle;Max_cycle;Signal;HPM_P1;HPM_P2
2021/03/01 00:00:28;;;;;;;2.80;1.40;;;;;;;1.75;80.69;100202.68;1745689;81;21208;-64
2021/03/01 00:02:55;;;;;;;4.97;2.07;;;;;;;1.73;80.72;100204.89;1765507;79;21119;-64
2021/03/01 00:05:23;;;;;;;1.70;1.20;;;;;;;1.73;80.80;100212.41;1734916;81;21040;-64
2021/03/01 00:07:50;;;;;;;2.00;1.70;;;;;;;1.73;80.80;100210.20;1732902;81;21084;-64
2021/03/01 00:10:18;;;;;;;3.10;1.63;;;;;;;1.73;80.86;100212.86;1749906;81;21123;-64
2021/03/01 00:12:47;;;;;;;1.97;1.77;;;;;;;1.74;80.87;100222.59;1746521;81;21198;-64
2021/03/01 00:15:16;;;;;;;2.73;1.73;;;;;;;1.73;80.81;100232.32;1742877;81;21731;-64
2021/03/01 00:17:43;;;;;;;3.93;2.60;;;;;;;1.69;80.82;100227.94;1732602;80;21306;-64
2021/03/01 00:20:14;;;;;;;2.37;1.83;;;;;;;1.63;80.84;100230.59;1737751;80;21127;-64
2021/03/01 00:22:41;;;;;;;2.30;1.90;;;;;;;1.62;80.96;100233.25;1739115;80;21152;-63
2021/03/01 00:25:10;;;;;;;2.20;1.27;;;;;;;1.62;80.97;100231.48;1734332;80;22340;-64
2021/03/01 00:27:38;;;;;;;4.20;1.57;;;;;;;1.62;81.03;100232.80;1737913;80;21220;-64
2021/03/01 00:30:07;;;;;;;2.53;1.20;;;;;;;1.62;81.02;100229.27;1728434;80;21211;-64
2021/03/01 00:32:35;;;;;;;2.67;1.10;;;;;;;1.64;81.03;100236.34;1718738;81;21436;-64
2021/03/01 00:35:05;;;;;;;1.60;1.33;;;;;;;1.64;81.02;100232.80;1734337;81;21809;-64
2021/03/01 00:37:32;;;;;;;2.40;1.50;;;;;;;1.65;81.08;100238.11;1739758;81;22371;-64
2021/03/01 00:39:59;;;;;;;2.80;1.33;;;;;;;1.65;81.02;100235.90;1798379;78;21114;-63
2021/03/01 00:42:26;;;;;;;4.30;1.53;;;;;;;1.64;81.02;100242.09;1792049;78;21243;-64
2021/03/01 00:44:53;;;;;;;2.27;1.70;;;;;;;1.60;81.03;100239.03;1796500;78;21178;-64
2021/03/01 00:47:20;;;;;;;2.90;1.63;;;;;;;1.60;81.03;100244.34;1793920;78;21150;-63
2021/03/01 00:49:49;;;;;;;2.70;1.37;;;;;;;1.62;81.00;100247.40;1796719;78;21355;-64
2021/03/01 00:52:16;;;;;;;2.63;1.37;;;;;;;1.61;80.96;100249.64;1801251;77;21435;-64
2021/03/01 00:54:44;;;;;;;2.00;1.10;;;;;;;1.62;81.08;100250.50;1793319;77;21810;-64
2021/03/01 00:57:11;;;;;;;2.50;1.10;;;;;;;1.65;81.05;100249.17;1795431;77;21170;-64
2021/03/01 00:59:39;;;;;;;2.67;1.00;;;;;;;1.67;81.01;100254.03;1771087;78;22406;-64
2021/03/01 01:02:08;;;;;;;2.07;1.20;;;;;;;1.68;81.01;100254.03;1797257;78;21209;-63
2021/03/01 01:04:37;;;;;;;2.53;1.10;;;;;;;1.70;80.93;100260.66;1736008;80;22528;-63
2021/03/01 01:07:06;;;;;;;1.50;1.03;;;;;;;1.69;80.82;100260.22;1801725;78;21114;-64
2021/03/01 01:09:33;;;;;;;1.60;1.00;;;;;;;1.64;80.73;100281.45;1791612;78;21163;-64
2021/03/01 01:12:00;;;;;;;1.20;0.80;;;;;;;1.58;80.76;100289.89;1792642;78;21170;-63
2021/03/01 01:14:27;;;;;;;1.60;0.90;;;;;;;1.51;80.81;100293.90;1794981;78;21573;-63
2021/03/01 01:16:54;;;;;;;1.43;1.00;;;;;;;1.46;80.94;100308.05;1734285;80;21684;-63
2021/03/01 01:19:22;;;;;;;2.67;0.70;;;;;;;1.46;81.08;100310.70;1797642;77;21646;-63
2021/03/01 01:21:49;;;;;;;0.97;0.70;;;;;;;1.46;81.08;100319.98;1797920;78;21166;-63
2021/03/01 01:24:18;;;;;;;1.00;0.70;;;;;;;1.45;81.11;100320.42;1732577;80;21141;-63
2021/03/01 01:26:45;;;;;;;1.00;0.70;;;;;;;1.44;81.14;100320.02;1731065;80;21306;-63
2021/03/01 01:31:47;;;;;;;0.70;0.60;;;;;;;1.44;81.11;100333.27;1822910;75;26975;-63
2021/03/01 01:34:15;;;;;;;0.67;0.60;;;;;;;1.36;81.18;100336.36;1809163;77;21138;-63
2021/03/01 01:36:42;;;;;;;1.43;0.60;;;;;;;1.37;81.18;100346.52;1798891;77;21181;-63
2021/03/01 01:39:09;;;;;;;0.93;0.50;;;;;;;1.36;81.24;100352.74;1799341;77;21425;-63
2021/03/01 01:41:36;;;;;;;2.90;0.60;;;;;;;1.36;81.28;100358.90;1794886;77;21178;-63
2021/03/01 01:44:25;;;;;;;1.10;0.50;;;;;;;1.35;81.21;100364.23;1788987;77;21545;-64
2021/03/01 01:46:52;;;;;;;1.80;0.70;;;;;;;1.33;81.30;100363.34;1738670;80;21104;-64
2021/03/01 01:49:20;;;;;;;1.07;0.70;;;;;;;1.31;81.42;100368.65;1743117;80;21581;-63
2021/03/01 01:51:47;;;;;;;2.77;1.07;;;;;;;1.32;81.41;100374.40;1700654;82;21261;-63
2021/03/01 01:54:14;;;;;;;1.17;0.87;;;;;;;1.33;81.43;100380.14;1670214;84;21213;-63
2021/03/01 01:56:42;;;;;;;0.93;0.67;;;;;;;1.33;81.39;100384.56;1703529;82;21216;-63
2021/03/01 01:59:09;;;;;;;0.93;0.50;;;;;;;1.31;81.36;100385.89;1697972;82;21200;-63
2021/03/01 02:01:36;;;;;;;0.50;0.50;;;;;;;1.29;81.31;100390.30;1689941;82;21222;-63
2021/03/01 02:04:19;;;;;;;0.73;0.50;;;;;;;1.25;81.45;100382.36;1697611;82;21187;-63
2021/03/01 02:07:06;;;;;;;0.67;0.50;;;;;;;1.27;81.55;100381.92;1695745;82;21000;-63
2021/03/01 02:10:04;;;;;;;0.83;0.60;;;;;;;1.26;81.42;100386.34;1701532;82;21172;-63
2021/03/01 02:12:46;;;;;;;0.50;0.50;;;;;;;1.25;81.56;100387.23;1696320;82;21253;-63
2021/03/01 02:15:35;;;;;;;0.83;0.70;;;;;;;1.26;81.53;100382.81;1673979;83;22004;-63
2021/03/01 02:18:03;;;;;;;1.53;0.70;;;;;;;1.24;81.45;100385.45;1699923;82;21186;-63
2021/03/01 02:20:31;;;;;;;0.90;0.60;;;;;;;1.22;81.48;100387.22;1697516;82;21578;-63
2021/03/01 02:23:00;;;;;;;0.80;0.53;;;;;;;1.22;81.58;100396.50;1697973;82;21979;-64
2021/03/01 02:25:28;;;;;;;1.37;0.60;;;;;;;1.25;81.64;100399.16;1694314;82;21474;-63
2021/03/01 02:28:04;;;;;;;0.70;0.60;;;;;;;1.28;81.61;100395.59;1697198;82;21221;-63
2021/03/01 02:33:08;;;;;;;0.87;0.70;;;;;;;1.39;81.62;100398.70;1866947;75;26585;-63
2021/03/01 02:35:37;;;;;;;0.90;0.60;;;;;;;1.40;81.63;100398.26;1840337;77;21362;-63
2021/03/01 02:38:07;;;;;;;0.80;0.70;;;;;;;1.42;81.53;100393.84;1844428;76;22250;-63
2021/03/01 02:40:35;;;;;;;0.97;0.70;;;;;;;1.43;81.46;100397.83;1842268;76;21311;-64
2021/03/01 02:43:03;;;;;;;1.20;1.00;;;;;;;1.46;81.38;100399.13;1846467;76;20958;-64
2021/03/01 02:45:30;;;;;;;1.00;0.80;;;;;;;1.50;81.35;100411.95;1844860;76;21067;-64
2021/03/01 02:47:57;;;;;;;1.00;0.90;;;;;;;1.51;81.28;100414.62;1784303;78;21107;-64
2021/03/01 02:50:25;;;;;;;1.10;1.00;;;;;;;1.55;81.30;100423.87;1806732;77;22102;-63
2021/03/01 02:52:52;;;;;;;1.00;0.90;;;;;;;1.59;81.27;100425.66;1777634;78;20992;-63
2021/03/01 02:55:19;;;;;;;1.20;0.80;;;;;;;1.61;81.15;100431.86;1788980;78;21004;-63
2021/03/01 02:57:47;;;;;;;1.03;0.80;;;;;;;1.61;81.13;100438.05;1789005;78;21125;-64
2021/03/01 03:00:15;;;;;;;1.03;0.70;;;;;;;1.61;81.04;100442.03;1788604;78;21929;-64
2021/03/01 03:02:42;;;;;;;0.80;0.63;;;;;;;1.58;80.93;100449.09;1784586;78;21400;-64
2021/03/01 03:05:12;;;;;;;0.70;0.67;;;;;;;1.58;80.92;100454.40;1786909;78;21145;-64
2021/03/01 03:07:40;;;;;;;1.70;0.60;;;;;;;1.58;80.85;100459.70;1790152;78;21155;-64
2021/03/01 03:10:08;;;;;;;0.60;0.60;;;;;;;1.57;80.89;100458.82;1791719;78;21154;-64
2021/03/01 03:12:38;;;;;;;0.53;0.50;;;;;;;1.59;80.88;100461.48;1791107;78;21612;-64
2021/03/01 03:15:07;;;;;;;0.80;0.60;;;;;;;1.60;80.88;100469.45;1788317;78;21812;-64
2021/03/01 03:17:34;;;;;;;1.13;0.60;;;;;;;1.60;80.88;100470.77;1785020;78;21117;-64
2021/03/01 03:20:08;;;;;;;1.10;0.70;;;;;;;1.62;80.91;100472.07;1785957;78;21166;-64
2021/03/01 03:22:35;;;;;;;2.00;1.10;;;;;;;1.63;80.80;100474.73;1807706;77;21490;-64
2021/03/01 03:25:05;;;;;;;2.60;1.10;;;;;;;1.60;80.71;100472.09;1800982;77;21156;-62
2021/03/01 03:27:32;;;;;;;3.40;1.20;;;;;;;1.56;80.69;100478.72;1805742;77;22291;-64
2021/03/01 03:29:59;;;;;;;2.03;0.90;;;;;;;1.53;80.66;100492.00;1775566;78;21565;-63
2021/03/01 03:32:27;;;;;;;1.50;1.00;;;;;;;1.50;80.68;100483.16;1806327;77;21225;-63
2021/03/01 03:34:54;;;;;;;1.43;0.90;;;;;;;1.47;80.62;100484.47;1809699;77;21182;-63
2021/03/01 03:37:28;;;;;;;1.10;0.70;;;;;;;1.43;80.62;100489.34;1809213;77;21175;-64
2021/03/01 03:39:56;;;;;;;1.00;0.70;;;;;;;1.40;80.65;100497.73;1781138;77;27398;-63
2021/03/01 03:42:25;;;;;;;1.30;0.70;;;;;;;1.38;80.69;100509.66;1783062;77;21198;-64
2021/03/01 03:44:53;;;;;;;3.80;1.67;;;;;;;1.34;80.74;100507.91;1789120;78;21198;-64
2021/03/01 03:47:22;;;;;;;1.30;0.70;;;;;;;1.27;80.72;100498.19;1780307;78;23187;-64
2021/03/01 03:49:51;;;;;;;1.70;0.70;;;;;;;1.23;80.75;100504.34;1780828;78;21797;-64
2021/03/01 03:52:18;;;;;;;0.70;0.50;;;;;;;1.21;80.86;100507.87;1790297;78;21573;-63
2021/03/01 03:54:48;;;;;;;1.37;0.60;;;;;;;1.20;80.96;100509.64;1767423;78;21230;-64
2021/03/01 03:57:20;;;;;;;2.40;0.70;;;;;;;1.20;80.93;100508.75;1787080;78;21162;-63
2021/03/01 03:59:47;;;;;;;1.87;0.70;;;;;;;1.20;81.00;100514.94;1784422;78;21624;-63
2021/03/01 04:02:14;;;;;;;1.27;0.80;;;;;;;1.20;81.07;100503.01;1805240;77;21671;-63
2021/03/01 04:04:42;;;;;;;1.00;0.70;;;;;;;1.21;81.09;100513.17;1810062;77;21617;-63
2021/03/01 04:07:10;;;;;;;1.43;0.80;;;;;;;1.22;81.09;100518.48;1810523;77;21645;-64
2021/03/01 04:09:41;;;;;;;1.17;0.70;;;;;;;1.25;81.13;100515.86;1770962;78;21171;-64
2021/03/01 04:12:10;;;;;;;2.43;1.10;;;;;;;1.28;81.00;100513.62;1775340;78;21114;-63
2021/03/01 04:14:38;;;;;;;0.90;0.80;;;;;;;1.29;81.00;100522.91;1787518;78;21142;-63
2021/03/01 04:17:09;;;;;;;1.10;0.70;;;;;;;1.30;81.02;100524.69;1815048;77;23239;-64
2021/03/01 04:19:39;;;;;;;1.53;1.03;;;;;;;1.31;80.92;100521.59;1783120;78;21225;-63
2021/03/01 04:22:07;;;;;;;4.23;2.50;;;;;;;1.32;81.01;100530.89;1751929;79;21199;-63
2021/03/01 04:24:35;;;;;;;6.73;4.30;;;;;;;1.35;80.87;100524.27;1782302;78;21183;-63
2021/03/01 04:27:04;;;;;;;2.27;1.63;;;;;;;1.37;80.72;100526.90;1788638;78;21186;-63
2021/03/01 04:29:31;;;;;;;4.40;1.30;;;;;;;1.36;80.53;100531.31;1788180;78;21393;-63
2021/03/01 04:31:59;;;;;;;4.03;2.60;;;;;;;1.34;80.61;100530.90;1785248;78;21735;-63
2021/03/01 04:34:26;;;;;;;1.50;1.40;;;;;;;1.35;80.38;100528.69;1776254;78;21195;-63
2021/03/01 04:36:55;;;;;;;3.57;1.10;;;;;;;1.33;80.32;100531.78;1806053;77;21175;-63
2021/03/01 04:39:23;;;;;;;5.23;1.33;;;;;;;1.33;80.25;100538.41;1807469;77;21127;-63
2021/03/01 04:41:51;;;;;;;1.97;1.20;;;;;;;1.34;80.33;100545.48;1769691;78;22216;-64
2021/03/01 04:44:18;;;;;;;2.00;1.07;;;;;;;1.35;80.37;100540.19;1780689;78;21289;-63
2021/03/01 04:49:47;;;;;;;2.53;1.90;;;;;;;1.40;80.41;100542.39;1863403;75;26702;-63
2021/03/01 04:52:15;;;;;;;3.00;1.23;;;;;;;1.39;80.40;100545.03;1844359;76;21014;-64
2021/03/01 04:54:42;;;;;;;4.93;1.13;;;;;;;1.43;80.40;100542.84;1842375;76;21690;-62
2021/03/01 04:57:10;;;;;;;1.97;1.00;;;;;;;1.45;80.38;100547.69;1845427;76;21230;-63
2021/03/01 04:59:40;;;;;;;1.30;0.80;;;;;;;1.47;80.48;100552.56;1846112;76;20986;-63
2021/03/01 05:02:09;;;;;;;2.03;1.00;;;;;;;1.47;80.48;100544.16;1846234;77;21149;-63
2021/03/01 05:04:36;;;;;;;1.20;0.93;;;;;;;1.50;80.48;100559.21;1844580;76;21493;-63
2021/03/01 05:07:08;;;;;;;2.50;1.40;;;;;;;1.48;80.52;100568.48;1809274;78;21349;-63
2021/03/01 05:09:36;;;;;;;1.63;1.23;;;;;;;1.49;80.58;100578.66;1778256;78;22053;-63
2021/03/01 05:12:04;;;;;;;1.30;0.80;;;;;;;1.47;80.52;100577.77;1779839;78;21501;-63
2021/03/01 05:14:34;;;;;;;0.90;0.70;;;;;;;1.43;80.48;100586.18;1775227;79;21763;-63
2021/03/01 05:17:02;;;;;;;1.37;0.80;;;;;;;1.41;80.59;100598.55;1781424;79;21068;-63
2021/03/01 05:19:31;;;;;;;4.10;0.80;;;;;;;1.40;80.61;100603.41;1805240;78;21529;-62
2021/03/01 05:21:58;;;;;;;1.87;0.80;;;;;;;1.37;80.56;100617.98;1809870;78;21194;-63
2021/03/01 05:24:25;;;;;;;1.50;0.80;;;;;;;1.34;80.71;100623.73;1805042;78;21182;-63
2021/03/01 05:26:53;;;;;;;1.97;1.10;;;;;;;1.35;80.75;100630.81;1813360;78;21088;-63
2021/03/01 05:29:20;;;;;;;2.40;0.90;;;;;;;1.34;80.82;100633.91;1809613;78;21127;-62
2021/03/01 05:31:47;;;;;;;1.23;1.00;;;;;;;1.34;80.81;100632.58;1805692;78;21136;-63
2021/03/01 05:34:15;;;;;;;1.27;0.90;;;;;;;1.34;80.77;100642.30;1781186;79;20996;-63
2021/03/01 05:36:43;;;;;;;1.47;0.97;;;;;;;1.35;80.79;100641.42;1779732;79;21107;-64
2021/03/01 05:39:10;;;;;;;1.20;0.80;;;;;;;1.36;80.80;100643.20;1782160;79;21114;-64
2021/03/01 05:41:39;;;;;;;3.93;0.80;;;;;;;1.37;80.81;100644.50;1774616;79;21095;-64
2021/03/01 05:44:07;;;;;;;2.70;0.80;;;;;;;1.39;80.80;100644.08;1755730;80;21209;-64
2021/03/01 05:46:36;;;;;;;2.60;0.90;;;;;;;1.40;80.67;100642.31;1756917;80;21115;-63
2021/03/01 05:49:04;;;;;;;1.93;1.00;;;;;;;1.40;80.72;100654.25;1752199;79;21134;-64
2021/03/01 05:51:32;;;;;;;1.90;1.10;;;;;;;1.40;80.71;100660.44;1754307;80;21614;-64
2021/03/01 05:54:00;;;;;;;2.40;1.60;;;;;;;1.40;80.66;100664.86;1752658;79;21119;-64
2021/03/01 05:56:28;;;;;;;1.53;1.10;;;;;;;1.40;80.67;100664.86;1755022;80;21208;-63
2021/03/01 05:58:56;;;;;;;2.00;1.20;;;;;;;1.43;80.62;100672.41;1754904;80;21122;-64
2021/03/01 06:01:24;;;;;;;1.13;0.90;;;;;;;1.46;80.60;100670.17;1755084;79;21131;-63
2021/03/01 06:03:52;;;;;;;4.07;1.07;;;;;;;1.49;80.59;100684.79;1752162;79;21774;-64
2021/03/01 06:06:19;;;;;;;2.63;1.40;;;;;;;1.50;80.59;100695.41;1753214;80;21633;-64
2021/03/01 06:08:47;;;;;;;4.07;1.90;;;;;;;1.53;80.59;100697.20;1753347;80;21697;-64
2021/03/01 06:11:15;;;;;;;15.70;3.30;;;;;;;1.53;80.47;100706.02;1748823;79;21218;-64
2021/03/01 06:13:42;;;;;;;5.03;2.73;;;;;;;1.55;80.35;100714.42;1753244;80;22373;-63
2021/03/01 06:16:09;;;;;;;7.43;2.90;;;;;;;1.53;80.23;100720.61;1747850;79;21170;-63
2021/03/01 06:18:44;;;;;;;6.00;2.37;;;;;;;1.49;80.25;100724.16;1748768;80;21556;-63
2021/03/01 06:21:16;;;;;;;4.40;1.65;;;;;;;1.48;80.19;100725.03;1766989;79;21211;-63
2021/03/01 06:23:45;;;;;;;2.90;1.70;;;;;;;1.49;80.28;100730.78;1766137;79;21648;-62
2021/03/01 06:26:29;;;;;;;6.77;2.40;;;;;;;1.51;80.33;100731.69;1763670;79;21658;-62
2021/03/01 06:29:06;;;;;;;3.02;2.05;;;;;;;1.57;80.31;100739.20;1766023;79;21494;-62
2021/03/01 06:31:46;;;;;;;3.60;2.37;;;;;;;1.57;80.30;100741.86;1769934;79;21556;-62
2021/03/01 06:34:31;;;;;;;3.27;2.17;;;;;;;1.54;80.34;100755.99;1770006;79;22587;-62
2021/03/01 06:37:10;;;;;;;4.07;2.73;;;;;;;1.54;80.37;100755.99;1771114;79;20965;-63
2021/03/01 06:39:45;;;;;;;4.00;1.80;;;;;;;1.50;80.43;100758.20;1767873;79;21665;-63
2021/03/01 06:42:26;;;;;;;3.87;1.60;;;;;;;1.50;80.42;100765.73;1768723;79;21178;-62
2021/03/01 06:45:01;;;;;;;1.90;1.13;;;;;;;1.52;80.54;100772.37;1768753;78;21278;-62
2021/03/01 06:47:52;;;;;;;1.73;1.20;;;;;;;1.55;80.49;100776.78;1764311;79;21799;-62
2021/03/01 06:50:42;;;;;;;2.43;1.40;;;;;;;1.58;80.59;100778.14;1769575;79;21446;-62
2021/03/01 06:53:15;;;;;;;2.53;1.60;;;;;;;1.59;80.58;100779.91;1768846;79;21206;-62
2021/03/01 06:56:11;;;;;;;3.37;1.67;;;;;;;1.60;80.55;100789.66;1768267;79;22007;-63
2021/03/01 06:58:42;;;;;;;3.17;2.33;;;;;;;1.57;80.51;100792.28;1767182;79;21045;-62
2021/03/01 07:01:21;;;;;;;4.50;1.77;;;;;;;1.55;80.70;100793.59;1762821;79;21218;-63
2021/03/01 07:03:50;;;;;;;1.90;1.53;;;;;;;1.58;80.78;100796.71;1768193;79;21174;-61
2021/03/01 07:06:19;;;;;;;1.80;1.33;;;;;;;1.61;80.67;100800.72;1768168;79;21185;-62
2021/03/01 07:08:53;;;;;;;3.83;1.90;;;;;;;1.61;80.62;100801.61;1758106;79;21223;-62
2021/03/01 07:11:33;;;;;;;1.52;1.42;;;;;;;1.60;80.66;100805.14;1767515;79;28129;-61
2021/03/01 07:14:10;;;;;;;2.90;2.30;;;;;;;1.60;80.80;100809.55;1761481;79;21217;-63
2021/03/01 07:16:48;;;;;;;2.63;2.40;;;;;;;1.58;80.78;100808.66;1765852;79;21183;-62
2021/03/01 07:19:22;;;;;;;2.23;2.03;;;;;;;1.60;80.81;100813.10;1764872;79;21175;-62
2021/03/01 07:21:52;;;;;;;3.03;2.40;;;;;;;1.60;80.76;100821.06;1770623;79;21179;-63
2021/03/01 07:24:24;;;;;;;3.40;2.10;;;;;;;1.58;80.80;100817.50;1770912;79;21166;-63
2021/03/01 07:26:56;;;;;;;4.03;2.33;;;;;;;1.59;80.93;100817.06;1760141;79;21706;-63
2021/03/01 07:29:24;;;;;;;4.00;2.40;;;;;;;1.61;80.96;100820.63;1771411;79;21212;-63
2021/03/01 07:31:57;;;;;;;2.27;1.90;;;;;;;1.64;81.01;100822.83;1767392;79;22125;-62
2021/03/01 07:34:24;;;;;;;4.37;3.43;;;;;;;1.67;80.95;100823.30;1766876;79;21175;-63
2021/03/01 07:36:53;;;;;;;4.30;2.57;;;;;;;1.65;80.97;100823.28;1762169;79;21597;-63
2021/03/01 07:39:20;;;;;;;3.40;2.50;;;;;;;1.70;80.97;100825.98;1762675;79;21426;-63
2021/03/01 07:41:48;;;;;;;5.20;3.77;;;;;;;1.71;80.91;100827.28;1764663;79;21739;-63
2021/03/01 07:44:17;;;;;;;9.07;5.30;;;;;;;1.71;80.96;100824.63;1770788;79;21147;-63
2021/03/01 07:46:47;;;;;;;4.97;4.27;;;;;;;1.69;80.85;100828.19;1736550;79;21699;-63
2021/03/01 07:49:37;;;;;;;7.07;4.77;;;;;;;1.72;81.00;100823.75;1774819;78;21610;-64
2021/03/01 07:52:05;;;;;;;5.07;4.00;;;;;;;1.78;80.98;100828.22;1752052;80;22189;-63
2021/03/01 07:54:52;;;;;;;4.33;3.60;;;;;;;1.84;80.88;100829.57;1784966;78;22208;-63
2021/03/01 07:57:20;;;;;;;2.43;2.20;;;;;;;1.90;80.88;100833.56;1784004;78;21595;-63
2021/03/01 07:59:47;;;;;;;2.93;2.60;;;;;;;1.95;80.62;100833.60;1760071;79;21191;-63
2021/03/01 08:02:31;;;;;;;3.47;2.70;;;;;;;1.98;80.53;100841.13;1760700;79;21176;-63
2021/03/01 08:05:03;;;;;;;3.50;3.02;;;;;;;1.99;80.51;100836.70;1762272;79;21321;-64
2021/03/01 08:07:42;;;;;;;2.40;2.20;;;;;;;2.02;80.43;100840.27;1754327;79;21234;-64
2021/03/01 08:10:36;;;;;;;4.27;2.20;;;;;;;2.04;80.29;100844.27;1764616;79;21167;-63
2021/03/01 08:13:07;;;;;;;5.93;2.50;;;;;;;2.07;80.26;100846.47;1757216;79;21665;-62
2021/03/01 08:15:42;;;;;;;5.13;2.77;;;;;;;2.06;80.00;100850.44;1764332;79;21206;-62
2021/03/01 08:18:14;;;;;;;7.53;2.97;;;;;;;2.07;80.06;100852.22;1768364;79;21672;-62
2021/03/01 08:20:54;;;;;;;9.07;3.07;;;;;;;2.09;79.86;100859.31;1766303;79;22390;-62
2021/03/01 08:23:23;;;;;;;8.47;3.40;;;;;;;2.12;79.82;100855.80;1761882;79;21119;-62
2021/03/01 08:25:51;;;;;;;3.80;3.03;;;;;;;2.13;79.76;100853.12;1743130;79;21183;-62
2021/03/01 08:28:30;;;;;;;7.40;4.17;;;;;;;2.12;79.71;100865.98;1787224;78;21726;-62
2021/03/01 08:31:20;;;;;;;6.23;3.27;;;;;;;2.09;79.72;100864.63;1784878;78;21399;-61
2021/03/01 08:33:49;;;;;;;7.17;3.93;;;;;;;2.07;79.69;100866.83;1745619;80;21206;-63
2021/03/01 08:36:21;;;;;;;7.17;3.13;;;;;;;2.09;79.56;100867.72;1758171;79;21207;-63
2021/03/01 08:38:50;;;;;;;3.33;2.43;;;;;;;2.11;79.58;100867.30;1761240;79;21128;-62
2021/03/01 08:41:35;;;;;;;5.93;3.13;;;;;;;2.14;79.54;100877.47;1786795;78;21230;-62
2021/03/01 08:44:04;;;;;;;3.87;2.87;;;;;;;2.22;79.47;100873.51;1780728;78;22737;-62
2021/03/01 08:46:32;;;;;;;4.10;2.83;;;;;;;2.24;79.17;100871.31;1758909;78;21130;-62
2021/03/01 08:48:59;;;;;;;8.60;5.00;;;;;;;2.25;79.10;100882.39;1755705;80;21114;-62
2021/03/01 08:51:27;;;;;;;8.53;4.93;;;;;;;2.26;79.11;100879.30;1782540;78;21103;-60
2021/03/01 08:53:54;;;;;;;9.17;4.93;;;;;;;2.26;78.88;100886.83;1753456;80;21149;-60
2021/03/01 08:56:26;;;;;;;9.43;3.73;;;;;;;2.25;78.94;100885.05;1786442;78;21490;-59
2021/03/01 08:58:53;;;;;;;5.87;3.80;;;;;;;2.29;78.90;100891.27;1754783;80;21464;-61
2021/03/01 09:01:21;;;;;;;8.17;5.93;;;;;;;2.35;78.80;100897.03;1786266;78;21461;-62
2021/03/01 09:03:49;;;;;;;9.40;4.60;;;;;;;2.44;78.85;100891.75;1751703;80;21135;-62
2021/03/01 09:06:21;;;;;;;12.90;7.17;;;;;;;2.53;78.40;100891.34;1781137;78;21240;-61
2021/03/01 09:08:55;;;;;;;7.50;4.83;;;;;;;2.64;78.26;100899.31;1749578;80;21661;-61
2021/03/01 09:11:30;;;;;;;5.58;3.83;;;;;;;2.71;78.26;100900.23;1783132;78;21261;-61
2021/03/01 09:14:00;;;;;;;7.08;3.62;;;;;;;2.80;77.67;100897.59;1787327;78;23339;-60
2021/03/01 09:16:29;;;;;;;2.17;1.23;;;;;;;2.79;77.38;100909.11;1781906;78;21227;-62
2021/03/01 09:19:03;;;;;;;3.93;1.00;;;;;;;2.71;76.64;100909.09;1752596;80;21182;-61
2021/03/01 09:21:34;;;;;;;1.00;0.90;;;;;;;2.65;76.25;100911.28;1784511;78;21626;-61
2021/03/01 09:24:01;;;;;;;1.40;1.00;;;;;;;2.63;76.46;100913.52;1749422;80;21213;-61
2021/03/01 09:26:32;;;;;;;3.10;2.80;;;;;;;2.66;76.22;100918.37;1769984;80;22573;-60
2021/03/01 09:29:17;;;;;;;4.03;1.83;;;;;;;2.69;75.99;100924.16;1763624;79;21510;-61
2021/03/01 09:31:51;;;;;;;4.70;2.97;;;;;;;2.70;76.10;100921.05;1765621;79;21530;-61
2021/03/01 09:34:23;;;;;;;2.40;1.57;;;;;;;2.73;76.10;100927.69;1773046;79;21281;-61
2021/03/01 09:36:53;;;;;;;2.45;1.30;;;;;;;2.73;75.91;100925.03;1766978;80;21231;-61
2021/03/01 09:39:25;;;;;;;1.70;1.30;;;;;;;2.73;75.98;100930.34;1768706;79;21200;-61
2021/03/01 09:41:56;;;;;;;1.93;1.23;;;;;;;2.72;75.94;100937.47;1782766;78;21186;-61
2021/03/01 09:44:26;;;;;;;3.77;1.30;;;;;;;2.76;76.18;100934.35;1750930;79;21178;-61
2021/03/01 09:46:56;;;;;;;2.20;1.20;;;;;;;2.83;75.87;100938.35;1784758;78;22463;-59
2021/03/01 09:49:26;;;;;;;3.27;1.33;;;;;;;2.85;75.88;100939.25;1783138;78;21234;-62
2021/03/01 09:51:53;;;;;;;1.60;1.20;;;;;;;2.90;75.81;100947.22;1787419;78;21202;-62
2021/03/01 09:54:24;;;;;;;1.40;1.00;;;;;;;2.95;75.46;100948.14;1754537;78;21430;-61
2021/03/01 09:56:55;;;;;;;2.57;1.20;;;;;;;3.01;75.29;100946.36;1784307;78;21134;-60
2021/03/01 09:59:32;;;;;;;2.23;1.63;;;;;;;3.03;75.15;100951.25;1747076;80;21208;-62
2021/03/01 10:02:20;;;;;;;1.50;1.10;;;;;;;3.06;75.30;100947.72;1784160;78;21182;-61
2021/03/01 10:04:51;;;;;;;2.73;1.10;;;;;;;3.09;74.74;100949.47;1781780;78;21202;-61
2021/03/01 10:07:25;;;;;;;1.80;1.20;;;;;;;3.11;74.62;100946.38;1743688;80;21183;-62
2021/03/01 10:09:55;;;;;;;1.35;1.00;;;;;;;3.14;74.01;100933.98;1785860;78;21134;-61
2021/03/01 10:12:22;;;;;;;1.37;1.10;;;;;;;3.22;73.86;100933.53;1748350;80;21778;-61
2021/03/01 10:14:59;;;;;;;3.53;1.00;;;;;;;3.30;73.52;100933.53;1763355;79;21147;-62
2021/03/01 10:17:31;;;;;;;2.33;1.20;;;;;;;3.35;73.54;100927.75;1782484;78;21182;-61
2021/03/01 10:20:13;;;;;;;4.27;1.87;;;;;;;3.42;73.19;100932.18;1753738;80;21139;-61
2021/03/01 10:23:05;;;;;;;3.93;1.60;;;;;;;3.43;73.03;100929.52;1760699;79;21501;-62
2021/03/01 10:25:39;;;;;;;2.03;1.53;;;;;;;3.39;72.82;100922.89;1751492;80;21392;-62
2021/03/01 10:28:28;;;;;;;2.05;1.17;;;;;;;3.40;72.89;100920.67;1784789;78;21194;-61
2021/03/01 10:31:08;;;;;;;2.73;1.20;;;;;;;3.46;72.48;100922.43;1745021;80;21176;-62
2021/03/01 10:33:55;;;;;;;3.40;1.57;;;;;;;3.52;72.37;100919.31;1785362;78;21230;-63
2021/03/01 10:36:35;;;;;;;3.00;1.30;;;;;;;3.59;72.38;100917.08;1784856;78;21241;-62
2021/03/01 10:39:18;;;;;;;2.33;1.40;;;;;;;3.68;72.27;100914.41;1781860;78;23015;-61
2021/03/01 10:41:54;;;;;;;1.80;1.40;;;;;;;3.77;72.05;100913.50;1782701;78;21190;-62
2021/03/01 10:44:33;;;;;;;2.97;1.60;;;;;;;3.79;71.87;100905.95;1783096;78;21210;-63
2021/03/01 10:47:29;;;;;;;2.53;1.70;;;;;;;3.83;72.05;100906.81;1782102;78;21183;-62
2021/03/01 10:50:19;;;;;;;2.50;1.37;;;;;;;3.86;71.78;100912.14;1747605;80;21560;-62
2021/03/01 10:52:48;;;;;;;4.43;1.70;;;;;;;3.90;71.89;100917.92;1764507;79;21711;-62
2021/03/01 10:55:15;;;;;;;2.07;1.23;;;;;;;3.90;71.76;100923.25;1761881;79;21151;-63
2021/03/01 10:57:42;;;;;;;1.87;0.90;;;;;;;3.91;71.41;100923.69;1760418;79;21637;-62
2021/03/01 11:00:12;;;;;;;1.20;0.80;;;;;;;3.92;71.05;100928.55;1766112;79;21732;-62
2021/03/01 11:02:39;;;;;;;1.73;1.10;;;;;;;3.95;70.99;100916.56;1766918;79;21871;-63
2021/03/01 11:05:11;;;;;;;1.80;1.20;;;;;;;4.01;71.04;100920.53;1762266;79;21447;-63
2021/03/01 11:07:40;;;;;;;2.60;1.40;;;;;;;4.09;70.78;100927.61;1767442;79;22060;-63
2021/03/01 11:10:07;;;;;;;1.97;1.30;;;;;;;4.15;70.57;100932.94;1767782;79;21178;-63
2021/03/01 11:12:36;;;;;;;2.77;1.07;;;;;;;4.18;70.48;100928.02;1765642;79;21203;-62
2021/03/01 11:15:05;;;;;;;1.30;0.83;;;;;;;4.22;69.89;100924.91;1765253;79;21166;-62
2021/03/01 11:17:32;;;;;;;1.40;1.00;;;;;;;4.25;69.75;100928.46;1771540;79;22079;-62
2021/03/01 11:20:00;;;;;;;1.37;1.00;;;;;;;4.26;69.76;100926.66;1764088;79;21147;-63
2021/03/01 11:22:27;;;;;;;3.63;0.90;;;;;;;4.28;69.73;100922.21;1767402;79;21123;-63
2021/03/01 11:24:54;;;;;;;1.43;0.90;;;;;;;4.27;69.59;100921.33;1770249;79;21523;-62
2021/03/01 11:27:21;;;;;;;2.07;0.80;;;;;;;4.25;69.43;100921.80;1769120;79;21101;-62
2021/03/01 11:29:49;;;;;;;1.03;0.80;;;;;;;4.18;68.68;100916.92;1764842;79;21566;-61
2021/03/01 11:32:16;;;;;;;1.00;0.70;;;;;;;4.07;68.67;100923.20;1770021;79;21115;-63
2021/03/01 11:34:44;;;;;;;1.07;0.80;;;;;;;3.95;69.12;100921.89;1779487;78;21206;-62
2021/03/01 11:37:11;;;;;;;1.10;0.70;;;;;;;3.88;69.52;100929.45;1762076;79;21597;-62
2021/03/01 11:39:39;;;;;;;1.00;0.70;;;;;;;3.85;69.68;100928.13;1762995;79;21232;-63
2021/03/01 11:42:06;;;;;;;1.20;0.70;;;;;;;3.80;69.67;100933.47;1764224;79;21454;-62
2021/03/01 11:44:33;;;;;;;0.90;0.70;;;;;;;3.75;69.82;100936.13;1764726;79;21513;-63
2021/03/01 11:47:00;;;;;;;0.90;0.60;;;;;;;3.70;70.06;100928.61;1764807;79;21163;-62
2021/03/01 11:49:28;;;;;;;1.00;0.70;;;;;;;3.67;70.23;100939.25;1766087;79;21112;-62
2021/03/01 11:51:55;;;;;;;0.90;0.70;;;;;;;3.59;70.37;100933.05;1781988;78;21554;-63
2021/03/01 11:54:24;;;;;;;1.00;0.77;;;;;;;3.53;70.69;100942.83;1755089;80;21763;-61
2021/03/01 11:56:52;;;;;;;2.20;0.70;;;;;;;3.49;70.82;100941.08;1787113;78;21155;-62
2021/03/01 11:59:19;;;;;;;0.60;0.60;;;;;;;3.47;71.02;100941.07;1752838;80;22687;-62